Bellmead, Texas
Current Conditions -  °F | °C
As of 4:51 AM on Wednesday 26 Nov 2014 (Local Time) from KACT Reporting Station
Clear Clear  
Wind Chill: 33°   Ceiling: Unl
Heat Index: 40°   Visibility: 10mi
Dew Point: 32°   Wind: 12mph
Humidity: 73%   Direction: 200°SSW
Pressure: 30.1"   Gusts: NA
Location:  31.6031°N, 97.0805°W
Report Text: KACT 261051Z 20010KT 10SM CLR 04/00 A3010 RMK AO2 SLP191 T00440000
Loading
Personal Weather Stations






























Interactive Weather Map New forecast layout! Learn more

10-Day Weather Forecast

Advertisements
Track Severe Weather on mobile